Time;durP1;ratioP1;P1;durP2;ratioP2;P2;SDS_P1;SDS_P2;PMS_P1;PMS_P2;Temp;Humidity;BMP_temperature;BMP_pressure;BME280_temperature;BME280_humidity;BME280_pressure;Samples;Min_cycle;Max_cycle;Signal;HPM_P1;HPM_P2
2022/05/23 00:02:16;;;;;;;3.22;2.22;;;14.50;99.90;;;;;;5133360;27;20188;-72
2022/05/23 00:04:42;;;;;;;3.03;2.53;;;14.50;99.90;;;;;;5133685;27;20179;-73
2022/05/23 00:07:25;;;;;;;5.93;2.70;;;14.50;99.90;;;;;;5133202;27;20209;-73
2022/05/23 00:09:51;;;;;;;3.13;2.47;;;14.50;99.90;;;;;;5115829;27;20196;-73
2022/05/23 00:12:17;;;;;;;4.85;1.98;;;14.50;99.90;;;;;;5131878;27;20218;-73
2022/05/23 00:14:43;;;;;;;4.07;2.85;;;14.40;99.90;;;;;;5125775;27;20200;-72
2022/05/23 00:17:10;;;;;;;3.20;2.63;;;14.30;99.90;;;;;;5132143;27;20251;-73
2022/05/23 00:19:36;;;;;;;5.50;3.17;;;14.40;99.90;;;;;;5138548;22;20763;-74
2022/05/23 00:22:01;;;;;;;5.97;3.20;;;14.30;99.90;;;;;;5112274;28;20201;-74
2022/05/23 00:24:26;;;;;;;5.93;3.00;;;14.30;99.90;;;;;;5111369;28;20209;-74
2022/05/23 00:26:52;;;;;;;5.15;2.83;;;14.30;99.90;;;;;;5111910;28;20213;-73
2022/05/23 00:29:19;;;;;;;5.13;2.92;;;14.10;99.90;;;;;;5093115;28;20654;-74
2022/05/23 00:37:14;;;;;;;8.07;2.80;;;14.10;99.90;;;;;;5112086;28;20742;-74
2022/05/23 00:39:40;;;;;;;4.80;2.90;;;14.10;99.90;;;;;;5092862;28;20217;-74
2022/05/23 00:44:56;;;;;;;5.03;2.70;;;14.00;99.90;;;;;;5089890;28;20624;-74
2022/05/23 00:47:24;;;;;;;3.92;2.85;;;14.10;99.90;;;;;;5111642;28;20205;-74
2022/05/23 00:49:50;;;;;;;4.25;2.88;;;14.00;99.90;;;;;;5093120;28;20629;-74
2022/05/23 00:52:49;;;;;;;4.85;2.80;;;14.10;99.90;;;;;;5111700;28;20193;-74
2022/05/23 00:55:26;;;;;;;5.60;2.92;;;14.00;99.90;;;;;;5111752;28;20205;-74
2022/05/23 00:57:56;;;;;;;5.13;3.22;;;14.00;99.90;;;;;;5093208;28;20193;-74
2022/05/23 01:00:22;;;;;;;5.15;2.90;;;13.90;99.90;;;;;;5092679;28;20205;-75
2022/05/23 01:02:53;;;;;;;4.28;3.10;;;13.90;99.90;;;;;;5111574;28;20670;-74
2022/05/23 01:05:19;;;;;;;5.80;3.13;;;13.90;99.90;;;;;;5093412;28;20174;-75
2022/05/23 01:07:45;;;;;;;4.95;3.22;;;13.80;99.90;;;;;;5111487;28;20201;-74
2022/05/23 01:10:10;;;;;;;8.02;3.42;;;13.80;99.90;;;;;;5111026;28;20205;-74
2022/05/23 01:12:37;;;;;;;5.55;3.38;;;13.80;99.90;;;;;;5093073;28;20205;-74
2022/05/23 01:15:05;;;;;;;5.03;3.10;;;13.80;99.90;;;;;;5103993;28;20225;-74
2022/05/23 01:17:30;;;;;;;8.25;3.70;;;13.80;99.90;;;;;;5111191;28;20177;-75
2022/05/23 01:19:56;;;;;;;5.75;3.30;;;13.70;99.90;;;;;;5110957;28;20209;-74
2022/05/23 01:23:00;;;;;;;5.38;3.38;;;13.70;99.90;;;;;;5093044;28;20208;-74
2022/05/23 01:25:32;;;;;;;3.80;2.83;;;13.80;99.90;;;;;;5092903;28;20201;-74
2022/05/23 01:27:58;;;;;;;5.55;3.85;;;13.80;99.90;;;;;;5092738;28;20225;-74
2022/05/23 01:30:24;;;;;;;5.03;3.08;;;13.70;99.90;;;;;;5110500;28;20198;-74
2022/05/23 01:32:50;;;;;;;7.18;3.38;;;13.60;99.90;;;;;;5111252;28;20673;-74
2022/05/23 01:35:16;;;;;;;6.60;3.35;;;13.60;99.90;;;;;;5112956;28;20181;-74
2022/05/23 01:37:41;;;;;;;5.90;3.42;;;13.50;99.90;;;;;;5096976;28;20260;-74
2022/05/23 01:40:11;;;;;;;6.43;3.30;;;13.60;99.90;;;;;;5114916;28;20205;-73
2022/05/23 01:42:36;;;;;;;5.97;3.55;;;13.50;99.90;;;;;;5115237;28;20200;-74
2022/05/23 01:45:02;;;;;;;5.10;3.30;;;13.40;99.90;;;;;;5108134;28;20211;-74
2022/05/23 01:47:28;;;;;;;5.65;2.83;;;13.50;99.90;;;;;;5115032;28;20231;-74
2022/05/23 01:49:53;;;;;;;5.93;3.20;;;13.50;99.90;;;;;;5115056;28;20202;-74
2022/05/23 01:52:19;;;;;;;5.17;3.00;;;13.40;99.90;;;;;;5115113;28;20211;-74
2022/05/23 01:54:44;;;;;;;5.47;3.00;;;13.50;99.90;;;;;;5114931;28;20263;-74
2022/05/23 01:57:12;;;;;;;5.33;3.27;;;13.50;99.90;;;;;;5115093;28;20205;-74
2022/05/23 02:02:23;;;;;;;5.03;3.22;;;13.50;99.90;;;;;;5115066;28;20212;-74
2022/05/23 02:04:49;;;;;;;5.07;3.43;;;13.40;99.90;;;;;;5115278;28;20249;-74
2022/05/23 02:07:15;;;;;;;4.20;3.10;;;13.50;99.90;;;;;;5114629;28;20744;-74
2022/05/23 02:09:41;;;;;;;5.00;3.47;;;13.40;99.90;;;;;;5113504;28;20309;-74
2022/05/23 02:12:08;;;;;;;5.20;3.50;;;13.40;99.90;;;;;;5114631;28;20204;-74
2022/05/23 02:14:34;;;;;;;4.87;3.30;;;13.50;99.90;;;;;;5107692;28;20214;-74
2022/05/23 02:16:59;;;;;;;5.37;3.00;;;13.40;99.90;;;;;;5096981;28;20235;-73
2022/05/23 02:19:25;;;;;;;6.07;3.93;;;13.40;99.90;;;;;;5113424;28;20274;-74
2022/05/23 02:21:50;;;;;;;6.00;3.63;;;13.30;99.90;;;;;;5114482;28;20313;-73
2022/05/23 02:24:16;;;;;;;7.33;4.13;;;13.30;99.90;;;;;;5096320;28;20641;-74
2022/05/23 02:26:41;;;;;;;7.00;4.00;;;13.30;99.90;;;;;;5105389;28;20233;-73
2022/05/23 02:29:08;;;;;;;7.10;3.90;;;13.30;99.90;;;;;;5083610;28;20198;-74
2022/05/23 02:31:35;;;;;;;6.33;3.80;;;13.30;99.90;;;;;;5093680;28;20214;-74
2022/05/23 02:34:00;;;;;;;5.87;3.87;;;13.20;99.90;;;;;;5093899;28;20210;-73
2022/05/23 02:36:27;;;;;;;8.87;4.97;;;13.20;99.90;;;;;;5093583;28;20686;-74
2022/05/23 02:38:53;;;;;;;8.67;3.63;;;13.30;99.90;;;;;;5074827;28;20210;-73
2022/05/23 02:41:18;;;;;;;4.53;3.60;;;13.30;99.90;;;;;;5093406;28;20178;-73
2022/05/23 02:43:44;;;;;;;4.57;3.90;;;13.20;99.90;;;;;;5102310;28;20167;-72
2022/05/23 02:46:09;;;;;;;5.37;3.73;;;13.10;99.90;;;;;;5074781;28;20268;-73
2022/05/23 02:48:35;;;;;;;4.73;3.97;;;13.10;99.90;;;;;;5101143;28;20212;-73
2022/05/23 02:51:00;;;;;;;6.23;4.03;;;13.10;99.90;;;;;;5093814;28;20198;-73
2022/05/23 02:53:26;;;;;;;6.43;4.40;;;13.10;99.90;;;;;;5093278;28;20266;-74
2022/05/23 02:55:52;;;;;;;6.33;3.60;;;13.10;99.90;;;;;;5094027;28;20206;-73
2022/05/23 02:58:17;;;;;;;5.43;4.00;;;13.20;99.90;;;;;;5071188;28;20214;-74
2022/05/23 03:00:43;;;;;;;8.57;4.20;;;13.20;99.90;;;;;;5074693;28;20245;-74
2022/05/23 03:03:09;;;;;;;6.67;4.43;;;13.20;99.90;;;;;;5075233;28;20234;-74
2022/05/23 03:05:46;;;;;;;5.17;3.80;;;13.20;99.90;;;;;;5093046;28;20244;-74
2022/05/23 03:08:15;;;;;;;5.13;4.20;;;13.20;99.90;;;;;;5074527;28;20170;-74
2022/05/23 03:10:41;;;;;;;4.97;3.83;;;13.20;99.90;;;;;;5093136;28;20194;-74
2022/05/23 03:13:07;;;;;;;4.97;3.80;;;13.20;99.90;;;;;;5093207;28;20203;-74
2022/05/23 03:15:33;;;;;;;6.83;4.27;;;13.20;99.90;;;;;;5093037;28;20208;-74
2022/05/23 03:17:59;;;;;;;6.57;4.33;;;13.20;99.90;;;;;;5074875;28;20206;-74
2022/05/23 03:20:27;;;;;;;5.83;4.10;;;13.20;99.90;;;;;;5092611;28;20218;-73
2022/05/23 03:28:21;;;;;;;5.47;3.83;;;13.40;99.90;;;;;;5087632;28;20214;-74
2022/05/23 03:30:47;;;;;;;6.53;4.13;;;13.40;99.90;;;;;;5092832;28;20202;-74
2022/05/23 03:33:13;;;;;;;6.37;4.03;;;13.50;99.90;;;;;;5074676;28;20209;-73
2022/05/23 03:35:39;;;;;;;8.50;4.23;;;13.60;99.90;;;;;;5092501;28;20202;-74
2022/05/23 03:38:06;;;;;;;4.63;3.93;;;13.80;99.90;;;;;;5092606;28;20174;-73
2022/05/23 03:40:33;;;;;;;7.03;4.90;;;14.40;99.90;;;;;;5091329;28;20205;-74
2022/05/23 03:43:00;;;;;;;6.22;4.30;;;15.30;99.90;;;;;;5092735;28;20675;-74
2022/05/23 03:45:26;;;;;;;6.43;4.35;;;15.50;99.90;;;;;;5092712;28;20240;-74
2022/05/23 03:47:53;;;;;;;7.53;4.40;;;16.40;99.90;;;;;;5095652;28;20209;-73
2022/05/23 03:50:21;;;;;;;7.47;4.07;;;17.00;99.90;;;;;;5096384;28;20229;-74
2022/05/23 03:52:46;;;;;;;5.22;4.43;;;17.40;99.90;;;;;;5105008;28;20171;-74
2022/05/23 03:55:12;;;;;;;7.45;4.40;;;17.80;99.90;;;;;;5113827;28;20715;-74
2022/05/23 03:57:37;;;;;;;5.80;4.53;;;17.60;99.90;;;;;;5103958;28;20213;-74
2022/05/23 04:00:06;;;;;;;4.38;3.97;;;18.50;99.90;;;;;;5086019;28;20218;-74
2022/05/23 04:02:32;;;;;;;6.78;4.47;;;18.70;99.90;;;;;;5092167;28;20206;-74
2022/05/23 04:04:57;;;;;;;6.78;4.22;;;18.40;99.90;;;;;;5092873;28;20311;-75
2022/05/23 04:07:23;;;;;;;7.95;3.85;;;18.70;99.90;;;;;;5073737;28;20237;-75
2022/05/23 04:09:49;;;;;;;5.43;3.55;;;18.20;99.90;;;;;;5091376;28;20301;-74
2022/05/23 04:12:14;;;;;;;7.10;4.07;;;18.70;99.90;;;;;;5091971;28;20202;-74
2022/05/23 04:14:40;;;;;;;5.45;3.83;;;19.30;99.90;;;;;;5073605;28;20217;-74
2022/05/23 04:17:07;;;;;;;4.75;3.58;;;20.20;99.90;;;;;;5092378;28;20228;-74
2022/05/23 04:19:33;;;;;;;4.65;3.85;;;21.20;99.90;;;;;;5072573;28;20605;-74
2022/05/23 04:21:58;;;;;;;6.43;3.60;;;21.60;99.90;;;;;;5091779;28;20202;-74
2022/05/23 04:24:24;;;;;;;4.78;3.42;;;21.70;99.90;;;;;;5091706;28;20228;-74
2022/05/23 04:26:54;;;;;;;6.95;3.90;;;21.20;99.90;;;;;;5091693;28;20589;-74
2022/05/23 04:29:20;;;;;;;4.45;3.53;;;21.90;99.90;;;;;;5085703;28;20198;-75
2022/05/23 04:31:45;;;;;;;5.97;3.33;;;20.60;99.90;;;;;;5091921;28;20775;-75
2022/05/23 04:36:54;;;;;;;5.93;4.30;;;19.90;99.90;;;;;;5084612;28;20251;-75
2022/05/23 04:39:20;;;;;;;5.35;3.50;;;21.00;99.90;;;;;;5090725;28;20198;-75
2022/05/23 04:41:45;;;;;;;7.13;3.42;;;21.50;99.90;;;;;;5099876;28;20207;-75
2022/05/23 04:44:11;;;;;;;4.40;3.92;;;22.40;99.90;;;;;;5077630;28;20595;-75
2022/05/23 04:46:36;;;;;;;7.28;3.83;;;22.70;99.90;;;;;;5112172;28;20796;-75
2022/05/23 04:51:46;;;;;;;6.50;3.45;;;23.50;99.90;;;;;;5112054;28;20208;-75
2022/05/23 04:54:11;;;;;;;8.13;3.80;;;22.80;99.90;;;;;;5111690;28;20201;-75
2022/05/23 04:56:37;;;;;;;5.45;3.35;;;23.20;99.90;;;;;;5111775;28;20219;-75
2022/05/23 04:59:03;;;;;;;4.65;3.30;;;23.60;99.90;;;;;;5111386;28;20197;-76
2022/05/23 05:01:29;;;;;;;3.70;3.40;;;22.30;99.90;;;;;;5111649;28;20206;-75
2022/05/23 05:03:57;;;;;;;5.82;3.83;;;22.60;99.90;;;;;;5111701;28;20201;-75
2022/05/23 05:06:23;;;;;;;4.38;3.55;;;22.90;99.90;;;;;;5111352;28;20236;-75
2022/05/23 05:08:49;;;;;;;4.45;3.40;;;22.90;99.90;;;;;;5110795;28;20284;-75
2022/05/23 05:11:15;;;;;;;5.40;3.20;;;24.20;99.90;;;;;;5092905;28;20169;-76
2022/05/23 05:13:42;;;;;;;6.38;3.45;;;24.60;99.90;;;;;;5092206;28;20269;-75
2022/05/23 05:16:08;;;;;;;5.03;3.13;;;25.30;99.90;;;;;;5111611;28;20677;-75
2022/05/23 05:18:34;;;;;;;6.75;2.70;;;24.00;99.90;;;;;;5090552;28;20314;-75
2022/05/23 05:21:08;;;;;;;6.65;3.28;;;23.40;99.90;;;;;;5093013;28;20292;-75
2022/05/23 05:23:33;;;;;;;4.30;3.45;;;23.00;99.90;;;;;;5111115;28;20292;-75
2022/05/23 05:25:59;;;;;;;6.07;3.72;;;24.40;99.90;;;;;;5093576;28;20317;-75
2022/05/23 05:28:25;;;;;;;4.63;3.20;;;24.70;99.90;;;;;;5092222;28;20222;-75
2022/05/23 05:31:00;;;;;;;6.38;3.25;;;24.30;99.90;;;;;;5111367;28;20201;-75
2022/05/23 05:33:32;;;;;;;3.33;2.75;;;24.30;99.90;;;;;;5093014;28;20200;-76
2022/05/23 05:36:06;;;;;;;4.28;3.22;;;24.10;99.90;;;;;;5111182;28;20225;-76
2022/05/23 05:38:41;;;;;;;3.85;2.90;;;24.50;99.90;;;;;;5110109;28;20212;-76
2022/05/23 05:41:11;;;;;;;5.90;3.38;;;24.90;99.90;;;;;;5093717;28;20174;-75
2022/05/23 05:43:43;;;;;;;4.63;2.60;;;24.70;99.90;;;;;;5091570;28;20298;-75
2022/05/23 05:46:15;;;;;;;5.28;3.42;;;25.60;99.90;;;;;;5111237;28;20592;-75
2022/05/23 05:48:47;;;;;;;6.05;2.70;;;24.50;99.90;;;;;;5110096;28;20209;-76
2022/05/23 05:51:15;;;;;;;5.95;3.20;;;24.80;99.90;;;;;;5111293;28;20202;-75
2022/05/23 05:53:41;;;;;;;4.07;2.60;;;26.40;99.90;;;;;;5092764;28;20245;-75
2022/05/23 05:56:09;;;;;;;5.32;2.60;;;26.10;99.90;;;;;;5111490;28;20228;-76
2022/05/23 05:58:34;;;;;;;3.85;2.95;;;25.50;99.90;;;;;;5091835;28;20217;-75
2022/05/23 06:01:04;;;;;;;3.15;2.45;;;25.90;99.90;;;;;;5092703;28;20274;-76
2022/05/23 06:03:29;;;;;;;5.15;3.17;;;25.10;99.90;;;;;;5092577;28;20280;-75
2022/05/23 06:11:23;;;;;;;5.32;2.13;;;25.70;99.90;;;;;;5111034;28;20250;-75
2022/05/23 06:13:50;;;;;;;4.85;2.55;;;24.80;99.90;;;;;;5110110;28;20977;-75
2022/05/23 06:16:16;;;;;;;5.45;2.20;;;25.60;99.90;;;;;;5092549;28;20284;-75
2022/05/23 06:18:42;;;;;;;4.55;2.20;;;25.80;99.90;;;;;;5109800;28;20285;-75
2022/05/23 06:21:09;;;;;;;3.60;2.05;;;25.10;99.90;;;;;;5133878;22;20217;-74
2022/05/23 06:23:36;;;;;;;4.10;2.67;;;24.70;99.90;;;;;;5116236;27;20204;-73
2022/05/23 06:26:02;;;;;;;4.95;2.20;;;24.90;99.90;;;;;;5135727;27;20337;-73
2022/05/23 06:28:27;;;;;;;6.88;3.20;;;25.20;99.90;;;;;;5115922;27;20616;-73
2022/05/23 06:30:52;;;;;;;5.90;3.90;;;25.10;99.90;;;;;;5117000;27;20578;-74
2022/05/23 06:33:18;;;;;;;4.50;2.83;;;25.90;99.90;;;;;;5135171;27;20228;-73
2022/05/23 06:35:44;;;;;;;4.43;1.98;;;26.70;99.90;;;;;;5134964;27;20564;-72
2022/05/23 06:38:09;;;;;;;4.00;2.15;;;26.40;99.90;;;;;;5134761;27;20667;-73
2022/05/23 06:40:34;;;;;;;3.05;2.15;;;24.80;99.90;;;;;;5134878;27;20265;-75
2022/05/23 06:43:01;;;;;;;4.47;2.55;;;24.00;99.90;;;;;;5126542;27;20280;-75
2022/05/23 06:45:27;;;;;;;2.92;2.22;;;24.50;99.90;;;;;;5115357;27;20619;-74
2022/05/23 06:47:52;;;;;;;3.08;2.20;;;25.10;99.90;;;;;;5134438;27;20208;-73
2022/05/23 06:50:18;;;;;;;2.42;1.77;;;27.10;99.90;;;;;;5134356;27;20197;-73
2022/05/23 06:52:43;;;;;;;7.80;2.60;;;27.60;99.40;;;;;;5135008;27;20177;-73
2022/05/23 06:55:09;;;;;;;3.28;2.75;;;26.90;99.60;;;;;;5116179;27;20252;-73
2022/05/23 06:57:35;;;;;;;4.88;2.38;;;27.20;98.90;;;;;;5134388;27;20224;-74
2022/05/23 07:00:01;;;;;;;4.53;2.38;;;27.40;98.90;;;;;;5133745;27;20616;-74
2022/05/23 07:02:26;;;;;;;5.57;3.40;;;27.30;98.80;;;;;;5134773;27;20215;-74
2022/05/23 07:13:04;;;;;;;2.45;1.73;;;26.50;97.90;;;;;;5134650;27;20292;-74
2022/05/23 07:15:36;;;;;;;3.55;1.40;;;26.80;97.70;;;;;;5133288;27;20224;-74
2022/05/23 07:18:03;;;;;;;5.18;1.70;;;26.30;97.30;;;;;;5115430;27;20250;-73
2022/05/23 07:20:29;;;;;;;2.80;1.38;;;25.00;98.40;;;;;;5134067;27;20205;-73
2022/05/23 07:22:55;;;;;;;2.58;1.60;;;24.70;99.50;;;;;;5116361;27;20180;-74
2022/05/23 07:25:20;;;;;;;2.60;1.40;;;25.40;99.60;;;;;;5115886;27;20193;-73
2022/05/23 07:27:46;;;;;;;3.25;1.80;;;25.40;98.80;;;;;;5117039;27;20204;-73
2022/05/23 07:30:11;;;;;;;4.25;1.80;;;26.10;98.30;;;;;;5133549;27;20201;-74
2022/05/23 07:32:37;;;;;;;4.70;1.85;;;26.20;98.50;;;;;;5133494;27;20703;-74
2022/05/23 07:35:03;;;;;;;3.13;1.48;;;26.50;97.40;;;;;;5134418;27;20191;-73
2022/05/23 07:37:28;;;;;;;2.92;1.63;;;27.10;96.60;;;;;;5115402;27;20212;-73
2022/05/23 07:39:56;;;;;;;4.15;1.98;;;26.30;97.50;;;;;;5132914;27;20291;-74
2022/05/23 07:42:22;;;;;;;3.17;2.00;;;26.90;96.80;;;;;;5115208;27;20197;-74
2022/05/23 07:44:48;;;;;;;3.05;1.88;;;26.20;96.50;;;;;;5132758;27;20207;-73
2022/05/23 07:47:13;;;;;;;3.53;1.67;;;24.60;99.00;;;;;;5115256;27;20197;-73
2022/05/23 07:49:39;;;;;;;6.35;1.88;;;24.10;99.40;;;;;;5114838;27;20193;-73
2022/05/23 07:52:05;;;;;;;2.72;1.88;;;24.60;99.90;;;;;;5115207;27;20208;-74
2022/05/23 08:02:43;;;;;;;3.67;1.95;;;24.10;99.90;;;;;;5133812;27;20593;-74
2022/05/23 08:05:09;;;;;;;4.40;2.08;;;24.70;99.50;;;;;;5133958;27;20173;-73
2022/05/23 08:07:35;;;;;;;3.28;1.80;;;24.60;99.40;;;;;;5133142;27;20213;-73
2022/05/23 08:10:01;;;;;;;3.03;1.63;;;25.70;98.80;;;;;;5114120;27;20209;-73
2022/05/23 08:12:28;;;;;;;1.95;1.45;;;26.40;97.80;;;;;;5133387;27;20193;-73
2022/05/23 08:14:56;;;;;;;6.10;1.50;;;25.90;97.60;;;;;;5113512;27;20258;-73
2022/05/23 08:17:22;;;;;;;3.00;1.25;;;24.20;98.70;;;;;;5133137;27;20196;-73
2022/05/23 08:19:49;;;;;;;2.83;1.38;;;24.00;99.20;;;;;;5132698;27;20239;-73
2022/05/23 08:22:15;;;;;;;3.63;1.67;;;24.40;99.40;;;;;;5115042;27;20719;-73
2022/05/23 08:24:40;;;;;;;3.67;1.30;;;24.70;98.60;;;;;;5115026;27;20629;-73
2022/05/23 08:27:06;;;;;;;4.78;1.70;;;25.40;97.40;;;;;;5133347;27;20216;-73
2022/05/23 08:29:31;;;;;;;2.05;1.35;;;25.60;97.60;;;;;;5132715;27;20229;-74
2022/05/23 08:31:58;;;;;;;2.95;1.50;;;25.50;97.00;;;;;;5133434;27;20184;-73
2022/05/23 08:34:24;;;;;;;3.65;1.67;;;24.60;96.60;;;;;;5132486;27;20216;-74
2022/05/23 08:36:51;;;;;;;7.60;2.10;;;25.30;96.70;;;;;;5132578;27;20193;-73
2022/05/23 08:39:17;;;;;;;13.77;4.07;;;24.70;96.70;;;;;;5113868;27;20669;-73
2022/05/23 08:41:44;;;;;;;4.25;1.45;;;25.10;97.00;;;;;;5114555;27;20208;-73
2022/05/23 08:44:39;;;;;;;3.42;1.42;;;24.60;97.10;;;;;;5113001;28;20181;-73
2022/05/23 08:47:11;;;;;;;4.13;1.80;;;25.10;96.30;;;;;;5133478;27;20299;-73
2022/05/23 08:49:45;;;;;;;2.60;1.70;;;24.40;96.70;;;;;;5131999;27;20216;-74
2022/05/23 08:52:18;;;;;;;3.25;1.52;;;25.70;96.20;;;;;;5132599;27;20205;-73
2022/05/23 08:55:01;;;;;;;4.13;1.33;;;26.00;95.40;;;;;;5113949;27;20578;-74
2022/05/23 08:57:38;;;;;;;3.35;1.60;;;25.10;96.40;;;;;;5132324;27;20200;-74
2022/05/23 09:00:09;;;;;;;2.78;1.17;;;25.00;95.60;;;;;;5113382;27;20204;-74
2022/05/23 09:02:41;;;;;;;4.93;1.63;;;25.30;95.10;;;;;;5114388;27;20212;-75
2022/05/23 09:05:12;;;;;;;3.90;1.55;;;25.30;94.90;;;;;;5133125;27;20238;-73
2022/05/23 09:08:04;;;;;;;3.80;1.50;;;24.40;95.60;;;;;;5114158;27;20283;-75
2022/05/23 09:10:55;;;;;;;3.20;1.50;;;24.50;95.80;;;;;;5126951;27;20315;-74
2022/05/23 09:13:23;;;;;;;2.65;1.48;;;24.00;95.80;;;;;;5131282;27;20197;-74
2022/05/23 09:15:52;;;;;;;2.20;1.55;;;23.40;97.30;;;;;;5097766;27;20201;-73
2022/05/23 09:18:22;;;;;;;2.92;1.48;;;23.40;96.90;;;;;;5131204;27;20197;-74
2022/05/23 09:20:51;;;;;;;3.67;1.45;;;23.60;96.60;;;;;;5132965;27;20595;-74
2022/05/23 09:23:30;;;;;;;2.05;1.20;;;24.20;96.30;;;;;;5132534;27;20176;-75
2022/05/23 09:25:57;;;;;;;2.13;1.30;;;24.10;95.90;;;;;;5114498;28;20165;-74
2022/05/23 09:28:34;;;;;;;2.80;1.40;;;23.80;96.30;;;;;;5131788;28;20201;-73
2022/05/23 09:31:26;;;;;;;4.00;1.55;;;23.70;96.90;;;;;;5114256;28;20208;-74
2022/05/23 09:33:56;;;;;;;10.95;1.90;;;23.20;97.40;;;;;;5132337;28;20197;-73
2022/05/23 09:36:31;;;;;;;5.82;2.28;;;22.80;98.20;;;;;;5132270;28;20673;-72
2022/05/23 09:39:05;;;;;;;3.45;1.20;;;23.00;98.30;;;;;;5113303;28;20794;-74
2022/05/23 09:49:55;;;;;;;2.78;1.33;;;23.00;98.00;;;;;;5132037;28;20228;-73
2022/05/23 09:52:27;;;;;;;1.83;1.35;;;22.80;97.60;;;;;;5114256;28;20676;-73
2022/05/23 09:54:57;;;;;;;4.28;2.03;;;22.80;97.60;;;;;;5132976;28;20727;-74
2022/05/23 09:57:26;;;;;;;5.95;2.70;;;22.60;98.30;;;;;;5137431;27;20208;-74
2022/05/23 09:59:59;;;;;;;3.45;1.70;;;22.70;98.60;;;;;;5118930;27;20211;-73
2022/05/23 10:02:38;;;;;;;3.67;2.08;;;22.70;98.70;;;;;;5136333;27;20161;-73
2022/05/23 10:05:07;;;;;;;10.18;3.42;;;22.40;99.10;;;;;;5118820;27;20245;-73
2022/05/23 10:07:36;;;;;;;3.65;1.48;;;22.90;99.60;;;;;;5118878;27;20212;-73
2022/05/23 10:10:33;;;;;;;5.22;1.85;;;23.00;99.30;;;;;;5135961;27;20338;-73
2022/05/23 10:13:19;;;;;;;1.83;1.50;;;22.90;98.90;;;;;;5135558;27;20702;-73
2022/05/23 10:15:59;;;;;;;4.30;2.03;;;22.70;99.30;;;;;;5118948;27;20665;-74
2022/05/23 10:18:25;;;;;;;2.75;1.30;;;22.80;99.30;;;;;;5138127;27;20201;-73
2022/05/23 10:20:51;;;;;;;2.78;1.30;;;23.40;98.80;;;;;;5138507;27;20219;-74
2022/05/23 10:23:22;;;;;;;3.38;1.42;;;23.30;98.50;;;;;;5139307;27;20700;-74
2022/05/23 10:26:01;;;;;;;5.13;1.50;;;23.30;98.60;;;;;;5140005;27;20208;-73
2022/05/23 10:29:03;;;;;;;2.83;1.85;;;23.10;98.60;;;;;;5119373;27;20250;-73
2022/05/23 10:31:44;;;;;;;2.08;1.25;;;23.60;98.40;;;;;;5113619;27;20307;-74
2022/05/23 10:34:39;;;;;;;2.42;1.50;;;23.50;98.30;;;;;;5135407;27;20810;-73
2022/05/23 10:37:09;;;;;;;3.08;1.60;;;22.90;98.20;;;;;;5135295;27;20291;-73
2022/05/23 10:42:31;;;;;;;2.35;1.35;;;23.20;98.60;;;;;;5135189;27;20256;-74
2022/05/23 10:45:12;;;;;;;3.20;1.52;;;23.50;98.60;;;;;;5115345;27;20257;-73
2022/05/23 10:48:22;;;;;;;2.40;1.70;;;23.90;98.30;;;;;;5134646;27;20273;-73
2022/05/23 10:51:23;;;;;;;3.60;1.73;;;23.30;97.20;;;;;;5016423;28;20242;-73
2022/05/23 10:54:11;;;;;;;3.58;1.58;;;23.40;98.00;;;;;;5116453;27;20204;-72
2022/05/23 10:57:02;;;;;;;2.88;2.10;;;23.10;97.70;;;;;;5134774;27;20209;-76
2022/05/23 10:59:58;;;;;;;3.67;1.70;;;23.30;97.10;;;;;;5115475;27;20209;-73
2022/05/23 11:02:51;;;;;;;4.55;1.40;;;23.40;97.10;;;;;;5134507;27;20161;-74
2022/05/23 11:05:36;;;;;;;3.47;1.55;;;23.80;97.40;;;;;;5116128;27;20637;-73
2022/05/23 11:08:23;;;;;;;1.90;1.27;;;23.70;97.30;;;;;;5132771;27;20239;-73
2022/05/23 11:10:56;;;;;;;4.10;1.33;;;23.60;97.00;;;;;;5116572;27;20584;-73
2022/05/23 11:13:40;;;;;;;1.38;1.27;;;23.30;96.80;;;;;;5133054;27;20569;-74
2022/05/23 11:16:29;;;;;;;1.90;1.70;;;23.00;96.90;;;;;;5116192;27;20762;-73
2022/05/23 11:19:17;;;;;;;4.30;1.27;;;23.20;97.20;;;;;;5133808;27;20205;-74
2022/05/23 11:22:02;;;;;;;2.28;1.50;;;23.20;97.20;;;;;;5134114;27;20209;-73
2022/05/23 11:24:41;;;;;;;2.65;1.50;;;23.00;98.20;;;;;;5133979;27;20346;-73
2022/05/23 11:35:52;;;;;;;2.45;1.92;;;23.10;97.50;;;;;;5134357;27;20207;-75
2022/05/23 11:38:19;;;;;;;3.42;1.50;;;23.30;97.40;;;;;;5114723;27;20177;-75
2022/05/23 11:40:53;;;;;;;2.63;1.48;;;23.40;97.50;;;;;;5134861;27;20197;-75
2022/05/23 11:43:23;;;;;;;3.40;1.55;;;23.10;97.70;;;;;;5133309;27;20207;-74
2022/05/23 11:45:59;;;;;;;3.80;1.60;;;23.00;98.00;;;;;;5118097;27;20300;-75
2022/05/23 11:48:34;;;;;;;4.45;1.40;;;23.20;97.80;;;;;;5133489;27;20250;-74
2022/05/23 11:51:25;;;;;;;5.10;1.30;;;23.30;98.00;;;;;;5133652;27;20203;-74
2022/05/23 11:53:56;;;;;;;3.88;1.40;;;23.40;97.40;;;;;;5133772;27;20193;-74
2022/05/23 11:56:46;;;;;;;3.03;1.45;;;23.40;97.20;;;;;;5133505;27;20173;-74
2022/05/23 11:59:35;;;;;;;2.45;1.23;;;23.00;97.50;;;;;;5114416;27;20168;-74
2022/05/23 12:02:12;;;;;;;4.80;1.60;;;22.90;98.20;;;;;;5133749;27;20184;-75
2022/05/23 12:04:50;;;;;;;3.28;1.55;;;23.10;98.00;;;;;;5133592;27;20209;-73
2022/05/23 12:07:31;;;;;;;3.72;3.13;;;23.20;98.10;;;;;;5133255;27;20720;-75
2022/05/23 12:10:20;;;;;;;2.70;1.40;;;23.80;97.70;;;;;;5100457;27;20208;-75
2022/05/23 12:12:49;;;;;;;2.97;1.50;;;23.30;98.10;;;;;;5114762;27;20253;-75
2022/05/23 12:15:42;;;;;;;4.70;1.70;;;23.30;97.70;;;;;;5132215;27;20207;-76
2022/05/23 12:18:29;;;;;;;5.05;1.85;;;23.60;98.30;;;;;;5132044;27;20703;-74
2022/05/23 12:20:57;;;;;;;1.67;1.40;;;23.30;98.00;;;;;;5114369;22;20225;-72
2022/05/23 12:23:44;;;;;;;3.47;1.70;;;23.20;98.00;;;;;;5111910;27;20202;-72
2022/05/23 12:26:10;;;;;;;3.63;1.95;;;23.40;98.30;;;;;;5110742;27;20170;-72
2022/05/23 12:28:51;;;;;;;2.33;1.25;;;23.40;97.90;;;;;;5111556;28;20262;-73
2022/05/23 12:31:27;;;;;;;3.00;1.50;;;23.40;97.50;;;;;;5112032;27;20240;-73
2022/05/23 12:34:02;;;;;;;3.03;1.58;;;23.70;97.60;;;;;;5112227;27;20201;-71
2022/05/23 12:36:31;;;;;;;2.22;1.10;;;23.40;96.90;;;;;;5112359;27;20229;-71
2022/05/23 12:40:01;;;;;;;2.20;1.17;;;23.50;97.00;;;;;;5111009;27;20236;-70
2022/05/23 12:42:45;;;;;;;2.63;1.40;;;23.50;97.60;;;;;;5071980;28;20198;-71
2022/05/23 12:45:20;;;;;;;1.95;1.30;;;23.50;97.20;;;;;;5108691;27;20202;-71
2022/05/23 12:48:08;;;;;;;3.20;1.00;;;23.70;96.50;;;;;;5109950;28;20291;-71
2022/05/23 12:50:59;;;;;;;3.25;1.30;;;23.20;97.00;;;;;;5111564;27;20579;-72
2022/05/23 12:53:33;;;;;;;2.25;1.05;;;23.40;96.80;;;;;;5111452;27;20185;-71
2022/05/23 12:56:23;;;;;;;3.70;1.38;;;23.20;96.80;;;;;;5112208;28;20252;-71
2022/05/23 12:59:10;;;;;;;2.38;1.23;;;23.20;96.70;;;;;;5111294;28;20202;-72
2022/05/23 13:01:39;;;;;;;2.95;2.03;;;23.10;97.00;;;;;;5111567;28;20224;-71
2022/05/23 13:04:20;;;;;;;2.53;1.30;;;23.10;96.90;;;;;;5110295;28;20209;-71
2022/05/23 13:07:05;;;;;;;1.65;0.98;;;23.20;97.20;;;;;;5110181;28;20200;-72
2022/05/23 13:09:46;;;;;;;2.97;1.60;;;23.30;97.20;;;;;;5109204;28;20198;-72
2022/05/23 13:12:24;;;;;;;2.47;1.25;;;23.10;97.40;;;;;;5110035;28;20201;-72
2022/05/23 13:14:58;;;;;;;3.17;1.63;;;23.10;97.60;;;;;;5108981;28;20207;-72
2022/05/23 13:17:41;;;;;;;5.75;1.63;;;23.20;97.70;;;;;;5111260;27;20177;-72
2022/05/23 13:23:17;;;;;;;2.00;1.40;;;23.80;97.00;;;;;;5132020;27;20227;-71
2022/05/23 13:25:45;;;;;;;5.50;1.80;;;23.50;97.30;;;;;;5132233;27;20180;-71
2022/05/23 13:28:12;;;;;;;2.83;1.23;;;23.30;97.50;;;;;;5130723;28;20216;-70
2022/05/23 13:30:49;;;;;;;4.28;1.70;;;23.60;97.50;;;;;;5133206;27;20215;-71
2022/05/23 13:33:19;;;;;;;4.72;1.48;;;23.50;97.50;;;;;;5120217;27;20204;-71
2022/05/23 13:35:46;;;;;;;2.20;1.52;;;23.20;98.00;;;;;;5138388;27;20201;-71
2022/05/23 13:38:16;;;;;;;4.03;1.63;;;23.40;97.90;;;;;;5138006;27;20198;-71
2022/05/23 13:40:45;;;;;;;2.08;1.63;;;23.30;97.40;;;;;;5139055;27;20176;-72
2022/05/23 13:43:27;;;;;;;2.08;1.30;;;23.40;98.00;;;;;;5138362;27;20684;-72
2022/05/23 13:46:19;;;;;;;3.15;1.65;;;23.10;97.90;;;;;;5138458;27;20215;-72
2022/05/23 13:49:09;;;;;;;6.18;1.58;;;23.10;98.60;;;;;;5119027;27;20228;-71
2022/05/23 13:51:46;;;;;;;2.55;1.45;;;23.20;98.20;;;;;;5138090;27;20217;-72
2022/05/23 13:54:24;;;;;;;2.95;1.48;;;23.10;97.90;;;;;;5119928;27;20200;-72
2022/05/23 13:56:57;;;;;;;3.30;1.60;;;23.20;97.50;;;;;;5138195;27;20197;-72
2022/05/23 13:59:27;;;;;;;3.90;1.67;;;23.30;98.00;;;;;;5137353;27;20717;-72
2022/05/23 14:01:56;;;;;;;6.20;1.55;;;23.40;98.20;;;;;;5138849;27;20735;-72
2022/05/23 14:04:26;;;;;;;4.60;1.90;;;23.30;98.30;;;;;;5138127;27;20220;-72
2022/05/23 14:07:08;;;;;;;3.03;1.50;;;23.50;98.60;;;;;;5138448;27;20601;-72
2022/05/23 14:09:34;;;;;;;6.47;2.38;;;23.70;98.00;;;;;;5137277;27;20234;-72
2022/05/23 14:12:06;;;;;;;4.10;1.88;;;23.70;97.40;;;;;;5119502;27;20207;-72
2022/05/23 14:14:38;;;;;;;3.45;1.88;;;23.50;97.40;;;;;;5118195;27;20253;-72